sensor_id;sensor_type;location;lat;lon;timestamp;pressure;altitude;pressure_sealevel;temperature;humidity
78717;BME280;68045;50.042;14.432;2023-09-07T00:00:34;99015.84;;;18.39;69.43
78717;BME280;68045;50.042;14.432;2023-09-07T00:04:55;99023.22;;;18.17;70.23
78717;BME280;68045;50.042;14.432;2023-09-07T00:08:56;99019.38;;;17.93;70.70
78717;BME280;68045;50.042;14.432;2023-09-07T00:12:57;99018.34;;;17.62;71.93
78717;BME280;68045;50.042;14.432;2023-09-07T00:16:57;99006.03;;;17.55;71.85
78717;BME280;68045;50.042;14.432;2023-09-07T00:20:59;99008.69;;;17.50;72.91
78717;BME280;68045;50.042;14.432;2023-09-07T00:25:00;99006.31;;;17.59;72.72
78717;BME280;68045;50.042;14.432;2023-09-07T00:29:01;99011.25;;;17.72;71.95
78717;BME280;68045;50.042;14.432;2023-09-07T00:33:01;99016.63;;;17.82;71.58
78717;BME280;68045;50.042;14.432;2023-09-07T00:37:02;99012.16;;;17.93;71.37
78717;BME280;68045;50.042;14.432;2023-09-07T00:41:03;99018.28;;;17.89;71.25
78717;BME280;68045;50.042;14.432;2023-09-07T00:45:05;99016.94;;;17.86;71.28
78717;BME280;68045;50.042;14.432;2023-09-07T00:49:06;99020.13;;;17.83;71.61
78717;BME280;68045;50.042;14.432;2023-09-07T00:53:07;99008.50;;;17.62;71.58
78717;BME280;68045;50.042;14.432;2023-09-07T00:57:08;99018.03;;;17.53;71.84
78717;BME280;68045;50.042;14.432;2023-09-07T01:01:09;99013.34;;;17.33;73.18
78717;BME280;68045;50.042;14.432;2023-09-07T01:05:11;99013.78;;;17.20;73.76
78717;BME280;68045;50.042;14.432;2023-09-07T01:09:19;99018.16;;;16.99;75.25
78717;BME280;68045;50.042;14.432;2023-09-07T01:13:21;99020.50;;;16.95;75.73
78717;BME280;68045;50.042;14.432;2023-09-07T01:17:22;99021.56;;;16.94;76.23
78717;BME280;68045;50.042;14.432;2023-09-07T01:21:23;99024.81;;;17.01;76.37
78717;BME280;68045;50.042;14.432;2023-09-07T01:25:24;99017.53;;;16.92;75.63
78717;BME280;68045;50.042;14.432;2023-09-07T01:29:25;99016.63;;;16.81;75.83
78717;BME280;68045;50.042;14.432;2023-09-07T01:33:30;99010.16;;;16.72;76.13
78717;BME280;68045;50.042;14.432;2023-09-07T01:37:31;99006.91;;;16.70;76.82
78717;BME280;68045;50.042;14.432;2023-09-07T01:41:34;99014.69;;;16.50;77.91
78717;BME280;68045;50.042;14.432;2023-09-07T01:45:34;99012.41;;;16.36;79.05
78717;BME280;68045;50.042;14.432;2023-09-07T01:49:35;99013.88;;;16.27;79.24
78717;BME280;68045;50.042;14.432;2023-09-07T01:53:36;99013.19;;;16.15;80.53
78717;BME280;68045;50.042;14.432;2023-09-07T01:57:37;99022.19;;;16.09;81.12
78717;BME280;68045;50.042;14.432;2023-09-07T02:01:38;99021.56;;;16.02;81.63
78717;BME280;68045;50.042;14.432;2023-09-07T02:05:39;99013.25;;;15.98;81.51
78717;BME280;68045;50.042;14.432;2023-09-07T02:09:41;99014.81;;;15.94;81.72
78717;BME280;68045;50.042;14.432;2023-09-07T02:13:42;99016.03;;;15.86;82.18
78717;BME280;68045;50.042;14.432;2023-09-07T02:17:43;99021.09;;;15.88;82.37
78717;BME280;68045;50.042;14.432;2023-09-07T02:21:47;99020.41;;;15.98;82.19
78717;BME280;68045;50.042;14.432;2023-09-07T02:25:48;99026.94;;;16.07;81.38
78717;BME280;68045;50.042;14.432;2023-09-07T02:29:49;99034.00;;;15.96;81.70
78717;BME280;68045;50.042;14.432;2023-09-07T02:33:50;99026.34;;;15.83;82.30
78717;BME280;68045;50.042;14.432;2023-09-07T02:37:51;99021.19;;;15.76;82.06
78717;BME280;68045;50.042;14.432;2023-09-07T02:41:52;99027.03;;;15.73;82.61
78717;BME280;68045;50.042;14.432;2023-09-07T02:45:53;99031.38;;;15.62;82.89
78717;BME280;68045;50.042;14.432;2023-09-07T02:49:56;99026.69;;;15.53;83.40
78717;BME280;68045;50.042;14.432;2023-09-07T02:53:57;99028.03;;;15.55;83.33
78717;BME280;68045;50.042;14.432;2023-09-07T02:57:58;99033.38;;;15.55;83.74
78717;BME280;68045;50.042;14.432;2023-09-07T03:02:01;99029.28;;;15.64;83.18
78717;BME280;68045;50.042;14.432;2023-09-07T03:06:12;99034.66;;;15.53;83.35
78717;BME280;68045;50.042;14.432;2023-09-07T03:10:15;99035.78;;;15.57;83.55
78717;BME280;68045;50.042;14.432;2023-09-07T03:14:19;99031.66;;;15.49;83.60
78717;BME280;68045;50.042;14.432;2023-09-07T03:18:20;99038.38;;;15.35;84.26
78717;BME280;68045;50.042;14.432;2023-09-07T03:22:22;99041.53;;;15.32;84.48
78717;BME280;68045;50.042;14.432;2023-09-07T03:26:23;99033.50;;;15.15;85.04
78717;BME280;68045;50.042;14.432;2023-09-07T03:30:25;99038.50;;;14.95;85.83
78717;BME280;68045;50.042;14.432;2023-09-07T03:34:27;99028.06;;;14.76;87.20
78717;BME280;68045;50.042;14.432;2023-09-07T03:38:29;99039.25;;;14.78;86.93
78717;BME280;68045;50.042;14.432;2023-09-07T03:42:30;99042.00;;;14.83;86.74
78717;BME280;68045;50.042;14.432;2023-09-07T03:46:31;99045.97;;;14.81;86.60
78717;BME280;68045;50.042;14.432;2023-09-07T03:50:32;99045.22;;;14.86;86.30
78717;BME280;68045;50.042;14.432;2023-09-07T03:54:33;99045.38;;;14.79;86.95
78717;BME280;68045;50.042;14.432;2023-09-07T03:58:34;99051.88;;;14.71;87.15
78717;BME280;68045;50.042;14.432;2023-09-07T04:02:35;99051.44;;;14.91;85.85
78717;BME280;68045;50.042;14.432;2023-09-07T04:06:35;99032.72;;;15.15;83.96
78717;BME280;68045;50.042;14.432;2023-09-07T04:10:37;99032.50;;;15.16;84.23
78717;BME280;68045;50.042;14.432;2023-09-07T04:14:38;99045.69;;;15.28;83.57
78717;BME280;68045;50.042;14.432;2023-09-07T04:18:39;99043.53;;;15.42;82.95
78717;BME280;68045;50.042;14.432;2023-09-07T04:22:40;99047.31;;;15.46;82.43
78717;BME280;68045;50.042;14.432;2023-09-07T04:26:41;99048.84;;;15.42;82.33
78717;BME280;68045;50.042;14.432;2023-09-07T04:30:42;99045.28;;;15.36;82.52
78717;BME280;68045;50.042;14.432;2023-09-07T04:34:43;99053.63;;;15.39;82.46
78717;BME280;68045;50.042;14.432;2023-09-07T04:38:44;99055.63;;;15.32;82.90
78717;BME280;68045;50.042;14.432;2023-09-07T04:42:46;99047.88;;;15.31;83.14
78717;BME280;68045;50.042;14.432;2023-09-07T04:46:47;99040.81;;;15.36;82.37
78717;BME280;68045;50.042;14.432;2023-09-07T04:50:48;99053.75;;;15.50;81.44
78717;BME280;68045;50.042;14.432;2023-09-07T04:54:48;99058.91;;;15.56;81.28
78717;BME280;68045;50.042;14.432;2023-09-07T04:58:51;99049.19;;;15.62;80.87
78717;BME280;68045;50.042;14.432;2023-09-07T05:02:51;99044.41;;;15.47;81.46
78717;BME280;68045;50.042;14.432;2023-09-07T05:06:52;99050.88;;;15.51;81.03
78717;BME280;68045;50.042;14.432;2023-09-07T05:10:58;99048.16;;;15.63;80.42
78717;BME280;68045;50.042;14.432;2023-09-07T05:14:59;99060.16;;;15.82;79.43
78717;BME280;68045;50.042;14.432;2023-09-07T05:19:01;99056.66;;;15.99;79.02
78717;BME280;68045;50.042;14.432;2023-09-07T05:23:02;99054.25;;;16.19;77.79
78717;BME280;68045;50.042;14.432;2023-09-07T05:27:03;99057.00;;;16.24;77.23
78717;BME280;68045;50.042;14.432;2023-09-07T05:31:04;99059.28;;;16.37;76.76
78717;BME280;68045;50.042;14.432;2023-09-07T05:35:06;99062.88;;;16.48;76.50
78717;BME280;68045;50.042;14.432;2023-09-07T05:39:07;99066.41;;;16.54;76.05
78717;BME280;68045;50.042;14.432;2023-09-07T05:43:09;99058.75;;;16.57;75.96
78717;BME280;68045;50.042;14.432;2023-09-07T05:47:10;99062.81;;;16.65;75.65
78717;BME280;68045;50.042;14.432;2023-09-07T05:51:11;99064.25;;;16.72;75.63
78717;BME280;68045;50.042;14.432;2023-09-07T05:55:11;99070.09;;;16.96;75.09
78717;BME280;68045;50.042;14.432;2023-09-07T05:59:13;99075.03;;;17.10;74.80
78717;BME280;68045;50.042;14.432;2023-09-07T06:03:14;99073.88;;;17.27;74.28
78717;BME280;68045;50.042;14.432;2023-09-07T06:07:15;99075.47;;;17.55;72.75
78717;BME280;68045;50.042;14.432;2023-09-07T06:11:16;99071.34;;;17.75;72.42
78717;BME280;68045;50.042;14.432;2023-09-07T06:15:18;99071.47;;;17.90;71.69
78717;BME280;68045;50.042;14.432;2023-09-07T06:19:19;99071.50;;;18.00;71.72
78717;BME280;68045;50.042;14.432;2023-09-07T06:23:21;99076.47;;;18.29;70.73
78717;BME280;68045;50.042;14.432;2023-09-07T06:27:21;99079.50;;;18.53;70.10
78717;BME280;68045;50.042;14.432;2023-09-07T06:31:22;99076.38;;;18.66;69.28
78717;BME280;68045;50.042;14.432;2023-09-07T06:35:23;99081.16;;;18.64;69.64
78717;BME280;68045;50.042;14.432;2023-09-07T06:39:24;99088.22;;;18.90;68.60
78717;BME280;68045;50.042;14.432;2023-09-07T06:43:26;99082.91;;;19.16;68.02
78717;BME280;68045;50.042;14.432;2023-09-07T06:47:29;99078.41;;;19.42;66.83
78717;BME280;68045;50.042;14.432;2023-09-07T06:51:31;99091.28;;;19.65;65.65
78717;BME280;68045;50.042;14.432;2023-09-07T06:55:32;99086.97;;;19.80;65.09
78717;BME280;68045;50.042;14.432;2023-09-07T06:59:33;99083.25;;;19.81;63.58
78717;BME280;68045;50.042;14.432;2023-09-07T07:03:34;99083.75;;;20.03;64.31
78717;BME280;68045;50.042;14.432;2023-09-07T07:07:35;99080.97;;;20.34;64.04
78717;BME280;68045;50.042;14.432;2023-09-07T07:11:36;99089.78;;;20.49;61.56
78717;BME280;68045;50.042;14.432;2023-09-07T07:15:41;99097.72;;;20.80;59.88
78717;BME280;68045;50.042;14.432;2023-09-07T07:19:42;99099.94;;;21.07;59.08
78717;BME280;68045;50.042;14.432;2023-09-07T07:23:44;99101.28;;;21.15;58.02
78717;BME280;68045;50.042;14.432;2023-09-07T07:27:45;99101.72;;;21.32;57.62
78717;BME280;68045;50.042;14.432;2023-09-07T07:31:46;99101.59;;;21.47;56.50
78717;BME280;68045;50.042;14.432;2023-09-07T07:39:49;99102.56;;;21.90;55.86
78717;BME280;68045;50.042;14.432;2023-09-07T07:43:51;99102.84;;;22.18;55.27
78717;BME280;68045;50.042;14.432;2023-09-07T07:47:53;99098.84;;;22.39;54.84
78717;BME280;68045;50.042;14.432;2023-09-07T07:51:55;99110.16;;;22.84;52.96
78717;BME280;68045;50.042;14.432;2023-09-07T07:55:58;99101.53;;;23.06;52.82
78717;BME280;68045;50.042;14.432;2023-09-07T07:59:59;99103.03;;;23.31;52.00
78717;BME280;68045;50.042;14.432;2023-09-07T08:04:02;99093.41;;;23.63;50.74
78717;BME280;68045;50.042;14.432;2023-09-07T08:08:04;99101.59;;;24.04;50.51
78717;BME280;68045;50.042;14.432;2023-09-07T08:12:05;99092.16;;;24.34;49.60
78717;BME280;68045;50.042;14.432;2023-09-07T08:16:08;99097.31;;;24.72;48.27
78717;BME280;68045;50.042;14.432;2023-09-07T08:20:09;99096.56;;;24.93;45.96
78717;BME280;68045;50.042;14.432;2023-09-07T08:24:12;99088.84;;;25.37;45.80
78717;BME280;68045;50.042;14.432;2023-09-07T08:28:13;99086.16;;;25.82;44.47
78717;BME280;68045;50.042;14.432;2023-09-07T08:32:14;99086.31;;;26.16;43.13
78717;BME280;68045;50.042;14.432;2023-09-07T08:36:16;99087.75;;;27.92;40.41
78717;BME280;68045;50.042;14.432;2023-09-07T08:40:18;99082.81;;;30.24;34.47
78717;BME280;68045;50.042;14.432;2023-09-07T08:44:20;99088.41;;;32.20;30.75
78717;BME280;68045;50.042;14.432;2023-09-07T08:48:21;99082.91;;;33.22;28.71
78717;BME280;68045;50.042;14.432;2023-09-07T08:52:23;99084.59;;;32.56;29.96
78717;BME280;68045;50.042;14.432;2023-09-07T08:56:24;99088.91;;;29.96;34.20
78717;BME280;68045;50.042;14.432;2023-09-07T09:00:25;99082.88;;;29.04;36.58
78717;BME280;68045;50.042;14.432;2023-09-07T09:04:27;99077.41;;;28.62;36.20
78717;BME280;68045;50.042;14.432;2023-09-07T09:08:28;99078.91;;;29.01;35.82
78717;BME280;68045;50.042;14.432;2023-09-07T09:12:29;99085.44;;;30.32;34.07
78717;BME280;68045;50.042;14.432;2023-09-07T09:16:30;99086.69;;;34.21;27.88
78717;BME280;68045;50.042;14.432;2023-09-07T09:20:31;99079.09;;;36.39;24.16
78717;BME280;68045;50.042;14.432;2023-09-07T09:24:33;99078.91;;;38.49;22.02
78717;BME280;68045;50.042;14.432;2023-09-07T09:28:35;99081.78;;;39.40;20.22
78717;BME280;68045;50.042;14.432;2023-09-07T09:32:36;99074.16;;;41.24;18.76
78717;BME280;68045;50.042;14.432;2023-09-07T09:36:37;99065.03;;;41.81;17.67
78717;BME280;68045;50.042;14.432;2023-09-07T09:40:38;99064.81;;;41.95;17.53
78717;BME280;68045;50.042;14.432;2023-09-07T09:44:39;99062.88;;;41.65;18.45
78717;BME280;68045;50.042;14.432;2023-09-07T09:48:42;99054.91;;;42.61;16.49
78717;BME280;68045;50.042;14.432;2023-09-07T09:52:45;99055.13;;;43.10;15.88
78717;BME280;68045;50.042;14.432;2023-09-07T09:56:46;99046.00;;;42.89;16.29
78717;BME280;68045;50.042;14.432;2023-09-07T10:00:49;99048.38;;;43.27;15.86
78717;BME280;68045;50.042;14.432;2023-09-07T10:04:52;99042.09;;;42.87;16.69
78717;BME280;68045;50.042;14.432;2023-09-07T10:09:02;99048.44;;;43.07;15.79
78717;BME280;68045;50.042;14.432;2023-09-07T10:13:13;99036.97;;;43.57;15.91
78717;BME280;68045;50.042;14.432;2023-09-07T10:17:22;99035.41;;;43.56;15.81
78717;BME280;68045;50.042;14.432;2023-09-07T10:21:24;99043.59;;;45.25;14.56
78717;BME280;68045;50.042;14.432;2023-09-07T10:25:30;99040.16;;;45.34;13.79
78717;BME280;68045;50.042;14.432;2023-09-07T10:29:46;99036.16;;;45.95;14.32
78717;BME280;68045;50.042;14.432;2023-09-07T10:33:50;99033.06;;;46.27;12.99
78717;BME280;68045;50.042;14.432;2023-09-07T10:37:51;99017.91;;;46.38;13.29
78717;BME280;68045;50.042;14.432;2023-09-07T10:41:52;99027.66;;;46.11;12.68
78717;BME280;68045;50.042;14.432;2023-09-07T10:45:57;99017.13;;;47.03;12.72
78717;BME280;68045;50.042;14.432;2023-09-07T10:49:58;99025.69;;;47.08;11.66
78717;BME280;68045;50.042;14.432;2023-09-07T10:53:59;99021.75;;;48.23;11.73
78717;BME280;68045;50.042;14.432;2023-09-07T10:58:01;99011.63;;;46.90;12.38
78717;BME280;68045;50.042;14.432;2023-09-07T11:02:05;99003.34;;;46.87;12.42
78717;BME280;68045;50.042;14.432;2023-09-07T11:06:16;99010.47;;;46.00;12.98
78717;BME280;68045;50.042;14.432;2023-09-07T11:10:20;98998.09;;;46.23;13.08
78717;BME280;68045;50.042;14.432;2023-09-07T11:14:22;99002.28;;;46.62;14.08
78717;BME280;68045;50.042;14.432;2023-09-07T11:18:23;99008.03;;;47.88;12.16
78717;BME280;68045;50.042;14.432;2023-09-07T11:22:25;99001.84;;;48.03;12.26
78717;BME280;68045;50.042;14.432;2023-09-07T11:26:25;98995.72;;;48.78;11.12
78717;BME280;68045;50.042;14.432;2023-09-07T11:30:26;98988.88;;;47.10;11.77
78717;BME280;68045;50.042;14.432;2023-09-07T11:34:27;98989.63;;;47.51;11.83
78717;BME280;68045;50.042;14.432;2023-09-07T11:38:34;98989.44;;;46.96;12.17
78717;BME280;68045;50.042;14.432;2023-09-07T11:42:36;98979.66;;;47.41;11.90
78717;BME280;68045;50.042;14.432;2023-09-07T11:46:37;98989.22;;;47.89;11.56
78717;BME280;68045;50.042;14.432;2023-09-07T11:50:38;98982.16;;;46.76;12.68
78717;BME280;68045;50.042;14.432;2023-09-07T11:54:40;98985.31;;;46.57;12.55
78717;BME280;68045;50.042;14.432;2023-09-07T11:58:41;98989.75;;;46.98;12.15
78717;BME280;68045;50.042;14.432;2023-09-07T12:02:44;98977.06;;;46.31;12.50
78717;BME280;68045;50.042;14.432;2023-09-07T12:06:45;98979.00;;;46.43;12.37
78717;BME280;68045;50.042;14.432;2023-09-07T12:10:46;98979.84;;;47.15;11.79
78717;BME280;68045;50.042;14.432;2023-09-07T12:14:47;98976.41;;;45.58;13.57
78717;BME280;68045;50.042;14.432;2023-09-07T12:18:48;98973.75;;;46.23;12.28
78717;BME280;68045;50.042;14.432;2023-09-07T12:22:49;98960.75;;;46.30;11.76
78717;BME280;68045;50.042;14.432;2023-09-07T12:26:50;98970.50;;;44.92;12.92
78717;BME280;68045;50.042;14.432;2023-09-07T12:30:51;98956.81;;;45.36;12.88
78717;BME280;68045;50.042;14.432;2023-09-07T12:34:52;98961.34;;;44.79;13.58
78717;BME280;68045;50.042;14.432;2023-09-07T12:38:54;98952.09;;;44.82;13.61
78717;BME280;68045;50.042;14.432;2023-09-07T12:42:55;98953.69;;;45.08;12.83
78717;BME280;68045;50.042;14.432;2023-09-07T12:46:56;98945.19;;;44.74;13.68
78717;BME280;68045;50.042;14.432;2023-09-07T12:50:57;98938.22;;;43.66;14.17
78717;BME280;68045;50.042;14.432;2023-09-07T12:54:57;98936.22;;;44.41;13.76
78717;BME280;68045;50.042;14.432;2023-09-07T12:58:58;98938.78;;;44.48;13.94
78717;BME280;68045;50.042;14.432;2023-09-07T13:03:00;98940.19;;;44.10;14.52
78717;BME280;68045;50.042;14.432;2023-09-07T13:07:01;98931.78;;;44.69;13.47
78717;BME280;68045;50.042;14.432;2023-09-07T13:11:02;98931.97;;;44.36;13.43
78717;BME280;68045;50.042;14.432;2023-09-07T13:15:04;98931.09;;;43.48;14.55
78717;BME280;68045;50.042;14.432;2023-09-07T13:19:05;98928.94;;;43.56;14.53
78717;BME280;68045;50.042;14.432;2023-09-07T13:23:07;98918.69;;;43.98;14.08
78717;BME280;68045;50.042;14.432;2023-09-07T13:27:07;98927.06;;;42.05;15.28
78717;BME280;68045;50.042;14.432;2023-09-07T13:31:11;98916.84;;;42.02;15.53
78717;BME280;68045;50.042;14.432;2023-09-07T13:35:11;98918.69;;;40.87;16.64
78717;BME280;68045;50.042;14.432;2023-09-07T13:39:12;98916.41;;;40.82;16.36
78717;BME280;68045;50.042;14.432;2023-09-07T13:43:13;98916.16;;;39.15;17.74
78717;BME280;68045;50.042;14.432;2023-09-07T13:47:14;98910.88;;;36.30;22.15
78717;BME280;68045;50.042;14.432;2023-09-07T13:51:15;98903.13;;;35.36;22.82
78717;BME280;68045;50.042;14.432;2023-09-07T13:55:16;98903.06;;;34.51;23.90
78717;BME280;68045;50.042;14.432;2023-09-07T13:59:18;98904.34;;;34.01;24.79
78717;BME280;68045;50.042;14.432;2023-09-07T14:03:18;98895.66;;;33.46;25.70
78717;BME280;68045;50.042;14.432;2023-09-07T14:07:20;98894.78;;;32.96;26.27
78717;BME280;68045;50.042;14.432;2023-09-07T14:11:21;98893.84;;;32.30;26.80
78717;BME280;68045;50.042;14.432;2023-09-07T14:15:25;98877.25;;;31.68;27.86
78717;BME280;68045;50.042;14.432;2023-09-07T14:19:26;98876.09;;;31.69;28.29
78717;BME280;68045;50.042;14.432;2023-09-07T14:23:31;98875.19;;;31.46;28.20
78717;BME280;68045;50.042;14.432;2023-09-07T14:27:32;98881.38;;;31.15;29.29
78717;BME280;68045;50.042;14.432;2023-09-07T14:31:33;98879.91;;;31.02;29.63
78717;BME280;68045;50.042;14.432;2023-09-07T14:35:34;98874.97;;;30.92;29.66
78717;BME280;68045;50.042;14.432;2023-09-07T14:39:35;98880.19;;;30.69;30.18
78717;BME280;68045;50.042;14.432;2023-09-07T14:43:36;98880.75;;;30.62;30.84
78717;BME280;68045;50.042;14.432;2023-09-07T14:47:37;98878.41;;;30.20;30.87
78717;BME280;68045;50.042;14.432;2023-09-07T14:51:38;98880.84;;;30.10;31.47
78717;BME280;68045;50.042;14.432;2023-09-07T14:55:39;98884.00;;;29.99;31.86
78717;BME280;68045;50.042;14.432;2023-09-07T14:59:40;98867.44;;;30.04;32.17
78717;BME280;68045;50.042;14.432;2023-09-07T15:03:41;98869.00;;;30.05;32.65
78717;BME280;68045;50.042;14.432;2023-09-07T15:07:42;98868.09;;;30.14;32.45
78717;BME280;68045;50.042;14.432;2023-09-07T15:11:42;98863.56;;;30.18;32.26
78717;BME280;68045;50.042;14.432;2023-09-07T15:15:43;98863.13;;;30.44;31.38
78717;BME280;68045;50.042;14.432;2023-09-07T15:19:44;98855.09;;;30.91;31.33
78717;BME280;68045;50.042;14.432;2023-09-07T15:23:46;98854.09;;;30.68;31.29
78717;BME280;68045;50.042;14.432;2023-09-07T15:27:49;98853.22;;;30.51;31.23
78717;BME280;68045;50.042;14.432;2023-09-07T15:31:50;98844.78;;;30.28;31.97
78717;BME280;68045;50.042;14.432;2023-09-07T15:35:51;98862.44;;;30.06;32.19
78717;BME280;68045;50.042;14.432;2023-09-07T15:39:52;98851.34;;;29.87;32.40
78717;BME280;68045;50.042;14.432;2023-09-07T15:43:54;98851.53;;;29.54;32.97
78717;BME280;68045;50.042;14.432;2023-09-07T15:47:55;98856.47;;;29.27;34.00
78717;BME280;68045;50.042;14.432;2023-09-07T15:51:56;98854.53;;;29.16;34.05
78717;BME280;68045;50.042;14.432;2023-09-07T15:55:56;98854.19;;;29.05;34.29
78717;BME280;68045;50.042;14.432;2023-09-07T15:59:58;98856.06;;;28.92;34.20
78717;BME280;68045;50.042;14.432;2023-09-07T16:04:00;98850.09;;;28.66;34.75
78717;BME280;68045;50.042;14.432;2023-09-07T16:08:01;98859.50;;;28.35;34.81
78717;BME280;68045;50.042;14.432;2023-09-07T16:12:03;98857.81;;;28.22;35.05
78717;BME280;68045;50.042;14.432;2023-09-07T16:16:04;98860.59;;;28.13;35.44
78717;BME280;68045;50.042;14.432;2023-09-07T16:20:05;98864.69;;;27.99;35.56
78717;BME280;68045;50.042;14.432;2023-09-07T16:24:06;98861.63;;;27.79;35.90
78717;BME280;68045;50.042;14.432;2023-09-07T16:28:07;98863.91;;;27.69;36.19
78717;BME280;68045;50.042;14.432;2023-09-07T16:32:08;98867.81;;;27.50;36.19
78717;BME280;68045;50.042;14.432;2023-09-07T16:36:09;98869.13;;;27.44;36.50
78717;BME280;68045;50.042;14.432;2023-09-07T16:40:10;98866.13;;;27.37;36.91
78717;BME280;68045;50.042;14.432;2023-09-07T16:44:12;98868.09;;;27.19;37.39
78717;BME280;68045;50.042;14.432;2023-09-07T16:48:13;98854.75;;;27.05;37.61
78717;BME280;68045;50.042;14.432;2023-09-07T16:52:14;98866.88;;;26.99;37.77
78717;BME280;68045;50.042;14.432;2023-09-07T16:56:15;98866.44;;;26.80;37.79
78717;BME280;68045;50.042;14.432;2023-09-07T17:00:21;98862.16;;;26.79;37.78
78717;BME280;68045;50.042;14.432;2023-09-07T17:04:33;98866.16;;;26.64;38.34
78717;BME280;68045;50.042;14.432;2023-09-07T17:08:34;98868.41;;;26.53;38.52
78717;BME280;68045;50.042;14.432;2023-09-07T17:12:35;98872.25;;;26.44;37.97
78717;BME280;68045;50.042;14.432;2023-09-07T17:16:36;98877.31;;;26.37;38.20
78717;BME280;68045;50.042;14.432;2023-09-07T17:20:37;98873.47;;;26.20;39.06
78717;BME280;68045;50.042;14.432;2023-09-07T17:24:38;98875.38;;;26.11;38.54
78717;BME280;68045;50.042;14.432;2023-09-07T17:28:39;98881.88;;;25.93;38.56
78717;BME280;68045;50.042;14.432;2023-09-07T17:32:40;98876.44;;;25.84;38.63
78717;BME280;68045;50.042;14.432;2023-09-07T17:36:40;98876.25;;;25.72;38.51
78717;BME280;68045;50.042;14.432;2023-09-07T17:40:41;98873.81;;;25.53;38.77
78717;BME280;68045;50.042;14.432;2023-09-07T17:44:42;98876.63;;;25.48;38.87
78717;BME280;68045;50.042;14.432;2023-09-07T17:48:43;98883.75;;;25.35;38.59
78717;BME280;68045;50.042;14.432;2023-09-07T17:52:44;98890.53;;;25.24;38.35
78717;BME280;68045;50.042;14.432;2023-09-07T17:56:45;98888.41;;;25.12;37.78
78717;BME280;68045;50.042;14.432;2023-09-07T18:00:46;98895.16;;;25.01;37.51
78717;BME280;68045;50.042;14.432;2023-09-07T18:04:47;98903.03;;;24.89;37.24
78717;BME280;68045;50.042;14.432;2023-09-07T18:08:47;98904.38;;;24.78;37.21
78717;BME280;68045;50.042;14.432;2023-09-07T18:12:48;98904.22;;;24.74;36.32
78717;BME280;68045;50.042;14.432;2023-09-07T18:16:49;98912.44;;;24.69;36.10
78717;BME280;68045;50.042;14.432;2023-09-07T18:20:50;98904.38;;;24.55;36.02
78717;BME280;68045;50.042;14.432;2023-09-07T18:24:51;98909.78;;;24.55;35.64
78717;BME280;68045;50.042;14.432;2023-09-07T18:28:51;98913.22;;;24.47;35.93
78717;BME280;68045;50.042;14.432;2023-09-07T18:32:52;98907.75;;;24.38;36.02
78717;BME280;68045;50.042;14.432;2023-09-07T18:36:53;98908.13;;;24.32;35.85
78717;BME280;68045;50.042;14.432;2023-09-07T18:40:54;98918.84;;;24.23;36.24
78717;BME280;68045;50.042;14.432;2023-09-07T18:44:54;98920.88;;;24.18;36.07
78717;BME280;68045;50.042;14.432;2023-09-07T18:48:55;98921.28;;;24.11;36.03
78717;BME280;68045;50.042;14.432;2023-09-07T18:52:56;98922.47;;;24.05;36.62
78717;BME280;68045;50.042;14.432;2023-09-07T18:56:57;98915.69;;;23.94;37.67
78717;BME280;68045;50.042;14.432;2023-09-07T19:00:58;98922.09;;;23.84;38.67
78717;BME280;68045;50.042;14.432;2023-09-07T19:04:59;98918.50;;;23.75;39.84
78717;BME280;68045;50.042;14.432;2023-09-07T19:09:00;98914.03;;;23.70;40.89
78717;BME280;68045;50.042;14.432;2023-09-07T19:13:00;98921.28;;;23.56;41.39
78717;BME280;68045;50.042;14.432;2023-09-07T19:17:01;98916.66;;;23.43;41.88
78717;BME280;68045;50.042;14.432;2023-09-07T19:21:02;98914.75;;;23.29;42.75
78717;BME280;68045;50.042;14.432;2023-09-07T19:25:03;98920.34;;;23.19;43.28
78717;BME280;68045;50.042;14.432;2023-09-07T19:29:09;98920.50;;;23.09;44.09
78717;BME280;68045;50.042;14.432;2023-09-07T19:33:10;98923.47;;;22.94;45.05
78717;BME280;68045;50.042;14.432;2023-09-07T19:37:11;98913.38;;;22.86;45.31
78717;BME280;68045;50.042;14.432;2023-09-07T19:41:12;98916.69;;;22.78;46.02
78717;BME280;68045;50.042;14.432;2023-09-07T19:45:13;98920.34;;;22.68;46.92
78717;BME280;68045;50.042;14.432;2023-09-07T19:49:14;98918.38;;;22.55;47.60
78717;BME280;68045;50.042;14.432;2023-09-07T19:53:15;98922.25;;;22.48;48.25
78717;BME280;68045;50.042;14.432;2023-09-07T19:57:16;98926.13;;;22.42;48.81
78717;BME280;68045;50.042;14.432;2023-09-07T20:01:18;98925.09;;;22.38;49.07
78717;BME280;68045;50.042;14.432;2023-09-07T20:05:18;98919.78;;;22.33;49.02
78717;BME280;68045;50.042;14.432;2023-09-07T20:09:20;98925.91;;;22.20;49.65
78717;BME280;68045;50.042;14.432;2023-09-07T20:13:21;98919.31;;;22.07;50.01
78717;BME280;68045;50.042;14.432;2023-09-07T20:17:22;98915.44;;;21.94;50.42
78717;BME280;68045;50.042;14.432;2023-09-07T20:21:22;98924.13;;;21.86;50.93
78717;BME280;68045;50.042;14.432;2023-09-07T20:25:23;98912.13;;;21.79;51.05
78717;BME280;68045;50.042;14.432;2023-09-07T20:29:25;98921.06;;;21.74;51.42
78717;BME280;68045;50.042;14.432;2023-09-07T20:33:26;98920.88;;;21.65;51.65
78717;BME280;68045;50.042;14.432;2023-09-07T20:37:26;98924.94;;;21.63;52.02
78717;BME280;68045;50.042;14.432;2023-09-07T20:41:27;98922.81;;;21.60;51.76
78717;BME280;68045;50.042;14.432;2023-09-07T20:45:28;98925.34;;;21.51;51.97
78717;BME280;68045;50.042;14.432;2023-09-07T20:49:29;98925.69;;;21.45;52.36
78717;BME280;68045;50.042;14.432;2023-09-07T20:53:30;98937.56;;;21.38;52.65
78717;BME280;68045;50.042;14.432;2023-09-07T20:57:31;98945.09;;;21.36;53.50
78717;BME280;68045;50.042;14.432;2023-09-07T21:01:32;98936.00;;;21.32;53.77
78717;BME280;68045;50.042;14.432;2023-09-07T21:05:33;98933.16;;;21.19;54.45